createdAt,value
2023-03-11T00:01:05.570Z,97322.53
2023-03-11T00:03:32.458Z,97321.63
2023-03-11T00:06:01.832Z,97320.84
2023-03-11T00:08:29.008Z,97323.28
2023-03-11T00:10:58.989Z,97316.50
2023-03-11T00:13:27.313Z,97319.19
2023-03-11T00:15:59.758Z,97326.84
2023-03-11T00:18:30.329Z,97324.22
2023-03-11T00:20:59.127Z,97331.88
2023-03-11T00:23:27.133Z,97334.59
2023-03-11T00:25:54.641Z,97325.38
2023-03-11T00:28:25.642Z,97324.34
2023-03-11T00:30:52.877Z,97321.75
2023-03-11T00:33:19.877Z,97335.53
2023-03-11T00:35:46.719Z,97336.44
2023-03-11T00:38:16.214Z,97346.81
2023-03-11T00:40:45.012Z,97336.56
2023-03-11T00:43:12.963Z,97345.31
2023-03-11T00:45:40.308Z,97353.13
2023-03-11T00:48:08.210Z,97353.28
2023-03-11T00:50:37.184Z,97353.28
2023-03-11T00:53:05.268Z,97349.06
2023-03-11T00:55:34.711Z,97364.63
2023-03-11T00:58:05.947Z,97356.09
2023-03-11T01:00:33.122Z,97365.47
2023-03-11T01:03:00.568Z,97368.09
2023-03-11T01:05:31.272Z,97366.47
2023-03-11T01:07:58.997Z,97362.97
2023-03-11T01:10:26.364Z,97367.47
2023-03-11T01:12:53.327Z,97359.66
2023-03-11T01:15:31.217Z,97364.84
2023-03-11T01:17:58.257Z,97363.19
2023-03-11T01:20:25.589Z,97359.72
2023-03-11T01:22:52.731Z,97370.84
2023-03-11T01:25:21.634Z,97371.66
2023-03-11T01:27:48.688Z,97381.28
2023-03-11T01:30:19.319Z,97372.66
2023-03-11T01:32:46.844Z,97382.25
2023-03-11T01:35:40.218Z,97389.91
2023-03-11T01:38:07.115Z,97385.50
2023-03-11T01:40:44.311Z,97388.09
2023-03-11T01:43:41.467Z,97385.44
2023-03-11T01:46:33.626Z,97384.69
2023-03-11T01:49:03.369Z,97384.81
2023-03-11T01:51:41.981Z,97384.22
2023-03-11T01:54:30.635Z,97385.25
2023-03-11T01:56:59.672Z,97392.97
2023-03-11T01:59:32.082Z,97386.91
2023-03-11T02:02:20.305Z,97392.16
2023-03-11T02:04:48.842Z,97385.31
2023-03-11T02:07:16.113Z,97387.78
2023-03-11T02:09:43.242Z,97380.06
2023-03-11T02:12:13.805Z,97378.38
2023-03-11T02:14:46.140Z,97372.22
2023-03-11T02:17:13.810Z,97379.19
2023-03-11T02:20:19.787Z,97380.94
2023-03-11T02:22:48.777Z,97382.59
2023-03-11T02:25:32.668Z,97378.34
2023-03-11T02:28:01.395Z,97378.31
2023-03-11T02:30:29.530Z,97372.16
2023-03-11T02:32:56.830Z,97373.88
2023-03-11T02:35:24.152Z,97379.09
2023-03-11T02:37:53.265Z,97386.00
2023-03-11T02:40:24.623Z,97380.06
2023-03-11T02:42:56.393Z,97384.38
2023-03-11T02:45:30.404Z,97378.41
2023-03-11T02:48:00.011Z,97376.66
2023-03-11T02:50:30.677Z,97367.25
2023-03-11T02:52:57.745Z,97361.97
2023-03-11T02:55:25.098Z,97364.50
2023-03-11T02:57:52.014Z,97351.63
2023-03-11T03:00:19.570Z,97354.28
2023-03-11T03:02:47.367Z,97362.81
2023-03-11T03:05:14.329Z,97357.63
2023-03-11T03:07:53.271Z,97351.66
2023-03-11T03:10:22.575Z,97350.75
2023-03-11T03:12:49.953Z,97345.63
2023-03-11T03:15:17.282Z,97345.69
2023-03-11T03:17:44.669Z,97341.31
2023-03-11T03:20:14.438Z,97352.59
2023-03-11T03:22:42.413Z,97349.16
2023-03-11T03:25:10.581Z,97347.41
2023-03-11T03:27:39.798Z,97347.53
2023-03-11T03:30:07.851Z,97355.25
2023-03-11T03:32:36.045Z,97350.09
2023-03-11T03:35:09.750Z,97360.41
2023-03-11T03:37:37.672Z,97355.31
2023-03-11T03:40:08.500Z,97359.72
2023-03-11T03:42:37.768Z,97361.50
2023-03-11T03:45:07.351Z,97357.97
2023-03-11T03:47:35.679Z,97364.91
2023-03-11T03:50:05.442Z,97369.16
2023-03-11T03:52:32.557Z,97364.81
2023-03-11T03:55:02.878Z,97361.44
2023-03-11T03:57:30.147Z,97362.28
2023-03-11T03:59:57.126Z,97363.88
2023-03-11T04:02:24.489Z,97366.53
2023-03-11T04:04:51.849Z,97372.44
2023-03-11T04:07:24.655Z,97374.22
2023-03-11T04:09:53.260Z,97369.00
2023-03-11T04:12:20.348Z,97375.84
2023-03-11T04:14:47.452Z,97374.88
2023-03-11T04:17:18.022Z,97378.47
2023-03-11T04:19:45.385Z,97380.16
2023-03-11T04:22:12.453Z,97381.09
2023-03-11T04:24:39.294Z,97377.59
2023-03-11T04:27:06.414Z,97384.44
2023-03-11T04:29:33.491Z,97386.97
2023-03-11T04:32:00.943Z,97389.53
2023-03-11T04:34:27.885Z,97398.16
2023-03-11T04:36:56.573Z,97400.75
2023-03-11T04:39:23.652Z,97402.31
2023-03-11T04:41:51.935Z,97413.56
2023-03-11T04:44:19.590Z,97414.47
2023-03-11T04:46:46.637Z,97404.81
2023-03-11T04:49:13.906Z,97407.41
2023-03-11T04:51:42.936Z,97408.25
2023-03-11T04:54:10.253Z,97407.50
2023-03-11T04:56:37.283Z,97408.34
2023-03-11T04:59:04.402Z,97404.09
2023-03-11T05:01:31.765Z,97410.03
2023-03-11T05:03:58.718Z,97415.28
2023-03-11T05:06:25.785Z,97424.78
2023-03-11T05:08:52.756Z,97408.34
2023-03-11T05:11:19.670Z,97411.69
2023-03-11T05:13:55.322Z,97420.28
2023-03-11T05:16:22.393Z,97405.59
2023-03-11T05:18:49.386Z,97414.13
2023-03-11T05:21:16.504Z,97413.22
2023-03-11T05:23:44.881Z,97411.38
2023-03-11T05:26:12.752Z,97419.91
2023-03-11T05:28:40.249Z,97406.81
2023-03-11T05:31:11.208Z,97419.00
2023-03-11T05:33:38.596Z,97428.47
2023-03-11T05:36:11.590Z,97421.47
2023-03-11T05:38:38.966Z,97425.78
2023-03-11T05:41:06.678Z,97437.94
2023-03-11T05:43:33.888Z,97430.97
2023-03-11T05:46:00.960Z,97429.19
2023-03-11T05:48:28.613Z,97428.22
2023-03-11T05:50:55.720Z,97431.66
2023-03-11T05:53:22.952Z,97421.41
2023-03-11T05:55:59.900Z,97431.94
2023-03-11T05:58:28.040Z,97425.78
2023-03-11T06:00:55.110Z,97419.84
2023-03-11T06:03:22.515Z,97420.81
2023-03-11T06:05:51.182Z,97420.97
2023-03-11T06:08:19.480Z,97430.28
2023-03-11T06:10:48.853Z,97437.25
2023-03-11T06:13:16.172Z,97443.31
2023-03-11T06:15:46.184Z,97437.25
2023-03-11T06:18:13.464Z,97436.38
2023-03-11T06:20:40.425Z,97426.19
2023-03-11T06:23:07.396Z,97436.44
2023-03-11T06:25:34.493Z,97442.47
2023-03-11T06:28:01.425Z,97446.69
2023-03-11T06:30:28.670Z,97450.78
2023-03-11T06:32:55.969Z,97454.13
2023-03-11T06:35:25.465Z,97451.59
2023-03-11T06:37:52.837Z,97441.41
2023-03-11T06:40:20.121Z,97458.63
2023-03-11T06:42:50.465Z,97449.19
2023-03-11T06:45:19.590Z,97445.75
2023-03-11T06:47:47.485Z,97445.78
2023-03-11T06:50:14.400Z,97446.06
2023-03-11T06:52:41.898Z,97454.41
2023-03-11T06:55:09.525Z,97454.28
2023-03-11T06:57:36.865Z,97449.94
2023-03-11T07:00:06.954Z,97449.16
2023-03-11T07:02:33.978Z,97455.88
2023-03-11T07:05:01.266Z,97442.03
2023-03-11T07:07:28.341Z,97459.97
2023-03-11T07:09:58.459Z,97459.88
2023-03-11T07:12:25.997Z,97459.00
2023-03-11T07:14:57.182Z,97460.84
2023-03-11T07:17:25.360Z,97461.97
2023-03-11T07:20:11.393Z,97462.06
2023-03-11T07:22:38.380Z,97463.66
2023-03-11T07:25:05.856Z,97464.50
2023-03-11T07:27:32.885Z,97470.53
2023-03-11T07:30:01.946Z,97464.69
2023-03-11T07:32:29.086Z,97464.69
2023-03-11T07:34:57.116Z,97461.22
2023-03-11T07:37:24.077Z,97459.59
2023-03-11T07:39:51.109Z,97455.97
2023-03-11T07:42:18.029Z,97449.38
2023-03-11T07:44:45.032Z,97452.06
2023-03-11T07:47:11.898Z,97457.66
2023-03-11T07:49:38.954Z,97467.72
2023-03-11T07:52:06.655Z,97465.06
2023-03-11T07:54:33.653Z,97472.16
2023-03-11T07:57:00.675Z,97469.56
2023-03-11T07:59:28.472Z,97472.00
2023-03-11T08:01:57.154Z,97472.72
2023-03-11T08:04:24.464Z,97463.41
2023-03-11T08:06:51.422Z,97484.78
2023-03-11T08:09:18.462Z,97505.22
2023-03-11T08:11:45.512Z,97519.00
2023-03-11T08:14:12.414Z,97525.91
2023-03-11T08:16:41.426Z,97509.66
2023-03-11T08:19:13.915Z,97505.91
2023-03-11T08:21:41.273Z,97504.09
2023-03-11T08:24:10.878Z,97501.72
2023-03-11T08:26:37.793Z,97505.13
2023-03-11T08:29:04.910Z,97523.25
2023-03-11T08:31:35.310Z,97531.09
2023-03-11T08:34:07.704Z,97535.59
2023-03-11T08:36:35.965Z,97538.19
2023-03-11T08:39:03.751Z,97544.97
2023-03-11T08:41:30.788Z,97561.44
2023-03-11T08:43:59.036Z,97580.41
2023-03-11T08:46:28.125Z,97584.84
2023-03-11T08:48:56.096Z,97564.13
2023-03-11T08:51:23.886Z,97547.56
2023-03-11T08:53:51.893Z,97538.38
2023-03-11T08:56:19.656Z,97542.44
2023-03-11T08:58:47.225Z,97555.84
2023-03-11T09:01:14.168Z,97554.13
2023-03-11T09:03:44.344Z,97552.44
2023-03-11T09:06:15.772Z,97548.44
2023-03-11T09:08:44.172Z,97557.06
2023-03-11T09:11:13.692Z,97557.72
2023-03-11T09:13:42.617Z,97552.75
2023-03-11T09:16:20.359Z,97552.97
2023-03-11T09:18:47.861Z,97562.09
2023-03-11T09:21:19.019Z,97565.00
2023-03-11T09:23:46.186Z,97549.41
2023-03-11T09:26:14.215Z,97549.16
2023-03-11T09:28:42.494Z,97548.84
2023-03-11T09:31:09.866Z,97556.16
2023-03-11T09:33:39.459Z,97577.41
2023-03-11T09:36:07.777Z,97569.41
2023-03-11T09:38:34.833Z,97569.63
2023-03-11T09:41:14.157Z,97566.00
2023-03-11T09:43:56.261Z,97580.72
2023-03-11T09:46:49.335Z,97581.72
2023-03-11T09:49:53.690Z,97577.31
2023-03-11T09:53:09.445Z,97602.56
2023-03-11T09:55:44.767Z,97604.38
2023-03-11T09:58:23.995Z,97610.72
2023-03-11T10:00:54.009Z,97605.63
2023-03-11T10:03:39.744Z,97607.69
2023-03-11T10:06:15.387Z,97616.56
2023-03-11T10:09:03.411Z,97628.03
2023-03-11T10:11:45.065Z,97637.41
2023-03-11T10:14:12.117Z,97636.19
2023-03-11T10:17:17.662Z,97636.88
2023-03-11T10:20:02.411Z,97648.50
2023-03-11T10:22:51.654Z,97661.41
2023-03-11T10:25:57.532Z,97676.28
2023-03-11T10:28:39.482Z,97675.28
2023-03-11T10:31:20.567Z,97679.91
2023-03-11T10:34:03.284Z,97686.13
2023-03-11T10:36:40.032Z,97699.13
2023-03-11T10:39:06.918Z,97731.84
2023-03-11T10:41:45.164Z,97739.66
2023-03-11T10:44:11.991Z,97748.31
2023-03-11T10:49:46.895Z,97778.38
2023-03-11T10:52:14.373Z,97759.44
2023-03-11T10:54:46.547Z,97755.13
2023-03-11T10:57:29.094Z,97773.97
2023-03-11T10:59:59.025Z,97771.41
2023-03-11T11:02:53.111Z,97774.09
2023-03-11T11:05:22.943Z,97793.88
2023-03-11T11:08:17.310Z,97779.22
2023-03-11T11:10:59.997Z,97787.78
2023-03-11T11:13:30.941Z,97787.75
2023-03-11T11:16:19.114Z,97786.72
2023-03-11T11:18:50.097Z,97791.25
2023-03-11T11:21:45.586Z,97789.50
2023-03-11T11:24:29.276Z,97809.28
2023-03-11T11:27:25.892Z,97816.13
2023-03-11T11:30:25.787Z,97834.13
2023-03-11T11:32:55.068Z,97815.16
2023-03-11T11:35:25.009Z,97815.03
2023-03-11T11:38:00.557Z,97833.81
2023-03-11T11:40:32.956Z,97838.66
2023-03-11T11:43:06.621Z,97847.50
2023-03-11T11:45:39.866Z,97847.53
2023-03-11T11:48:35.291Z,97868.03
2023-03-11T11:51:06.698Z,97867.16
2023-03-11T11:53:58.178Z,97872.13
2023-03-11T11:56:25.995Z,97873.94
2023-03-11T11:58:56.142Z,97886.84
2023-03-11T12:01:40.495Z,97892.00
2023-03-11T12:04:25.505Z,97900.56
2023-03-11T12:07:11.235Z,97905.41
2023-03-11T12:10:23.001Z,97909.84
2023-03-11T12:13:06.346Z,97924.25
2023-03-11T12:15:59.601Z,97922.72
2023-03-11T12:18:35.543Z,97933.03
2023-03-11T12:21:30.024Z,97907.25
2023-03-11T12:24:12.924Z,97913.94
2023-03-11T12:26:48.457Z,97930.31
2023-03-11T12:29:44.296Z,97942.34
2023-03-11T12:32:41.169Z,97942.59
2023-03-11T12:35:26.648Z,97949.44
2023-03-11T12:38:15.303Z,97934.16
2023-03-11T12:41:05.564Z,97945.34
2023-03-11T12:43:36.379Z,97957.03
2023-03-11T12:46:12.268Z,97958.84
2023-03-11T12:49:13.858Z,97975.06
2023-03-11T12:51:51.125Z,97986.13
2023-03-11T12:54:24.945Z,97992.59
2023-03-11T12:57:01.575Z,98008.66
2023-03-11T12:59:34.864Z,98018.44
2023-03-11T13:02:39.927Z,98028.09
2023-03-11T13:05:24.354Z,98029.75
2023-03-11T13:08:01.710Z,98034.88
2023-03-11T13:10:37.392Z,98041.59
2023-03-11T13:13:34.718Z,98039.78
2023-03-11T13:16:14.552Z,98045.81
2023-03-11T13:18:45.522Z,98037.34
2023-03-11T13:21:40.476Z,98040.66
2023-03-11T13:24:19.366Z,98046.22
2023-03-11T13:27:15.262Z,98049.88
2023-03-11T13:29:57.945Z,98053.91
2023-03-11T13:32:48.103Z,98039.69
2023-03-11T13:35:57.363Z,98048.94
2023-03-11T13:38:35.213Z,98038.59
2023-03-11T13:41:05.885Z,98019.06
2023-03-11T13:43:33.051Z,98052.34
2023-03-11T13:46:11.911Z,98048.72
2023-03-11T13:48:46.560Z,98053.78
2023-03-11T13:51:18.515Z,98058.84
2023-03-11T13:54:05.686Z,98065.88
2023-03-11T13:56:36.858Z,98056.38
2023-03-11T13:59:36.557Z,98058.94
2023-03-11T14:02:09.682Z,98055.84
2023-03-11T14:04:40.831Z,98051.47
2023-03-11T14:07:35.593Z,98059.06
2023-03-11T14:10:24.198Z,98066.03
2023-03-11T14:12:51.965Z,98060.88
2023-03-11T14:15:27.147Z,98049.34
2023-03-11T14:17:54.969Z,98045.63
2023-03-11T14:20:25.729Z,98060.47
2023-03-11T14:22:55.274Z,98057.09
2023-03-11T14:25:31.779Z,98059.69
2023-03-11T14:28:04.957Z,98069.13
2023-03-11T14:30:34.643Z,98069.19
2023-03-11T14:33:20.845Z,98074.34
2023-03-11T14:36:03.730Z,98070.91
2023-03-11T14:38:32.781Z,98075.13
2023-03-11T14:41:15.682Z,98074.19
2023-03-11T14:43:47.949Z,98070.00
2023-03-11T14:46:28.192Z,98082.84
2023-03-11T14:48:57.921Z,98082.78
2023-03-11T14:51:32.197Z,98084.59
2023-03-11T14:54:07.777Z,98078.56
2023-03-11T14:56:40.469Z,98078.50
2023-03-11T14:59:13.264Z,98075.97
2023-03-11T15:01:45.645Z,98075.13
2023-03-11T15:04:13.633Z,98069.06
2023-03-11T15:06:44.120Z,98081.16
2023-03-11T15:09:17.362Z,98087.25
2023-03-11T15:11:53.216Z,98094.97
2023-03-11T15:14:24.347Z,98088.97
2023-03-11T15:16:52.715Z,98093.19
2023-03-11T15:19:28.941Z,98106.09
2023-03-11T15:22:00.111Z,98110.44
2023-03-11T15:24:30.298Z,98120.75
2023-03-11T15:27:02.793Z,98107.84
2023-03-11T15:29:31.256Z,98118.91
2023-03-11T15:31:59.015Z,98104.91
2023-03-11T15:34:30.930Z,98115.22
2023-03-11T15:37:04.901Z,98112.56
2023-03-11T15:39:31.972Z,98127.22
2023-03-11T15:42:08.536Z,98119.19
2023-03-11T15:44:37.292Z,98128.72
2023-03-11T15:47:04.937Z,98131.34
2023-03-11T15:49:31.931Z,98132.25
2023-03-11T15:52:02.489Z,98131.34
2023-03-11T15:54:29.976Z,98131.41
2023-03-11T15:56:58.903Z,98138.19
2023-03-11T15:59:26.661Z,98138.16
2023-03-11T16:01:53.571Z,98130.19
2023-03-11T16:04:39.427Z,98152.75
2023-03-11T16:07:08.738Z,98150.94
2023-03-11T16:09:35.763Z,98153.63
2023-03-11T16:12:13.787Z,98164.69
2023-03-11T16:14:40.783Z,98154.28
2023-03-11T16:17:07.693Z,98170.53
2023-03-11T16:19:34.862Z,98165.19
2023-03-11T16:22:03.134Z,98166.28
2023-03-11T16:24:30.070Z,98174.69
2023-03-11T16:26:57.163Z,98171.56
2023-03-11T16:29:24.317Z,98175.84
2023-03-11T16:31:51.296Z,98177.59
2023-03-11T16:34:19.752Z,98179.28
2023-03-11T16:36:46.958Z,98181.84
2023-03-11T16:39:14.785Z,98173.25
2023-03-11T16:41:44.643Z,98171.44
2023-03-11T16:44:30.998Z,98182.69
2023-03-11T16:46:58.088Z,98191.41
2023-03-11T16:49:25.200Z,98203.41
2023-03-11T16:51:52.008Z,98202.41
2023-03-11T16:54:19.124Z,98208.50
2023-03-11T16:56:46.008Z,98208.47
2023-03-11T16:59:13.009Z,98217.03
2023-03-11T17:01:40.509Z,98227.34
2023-03-11T17:04:08.052Z,98228.19
2023-03-11T17:06:35.347Z,98229.69
2023-03-11T17:09:02.499Z,98235.81
2023-03-11T17:11:30.941Z,98235.88
2023-03-11T17:14:10.047Z,98249.69
2023-03-11T17:16:42.482Z,98254.09
2023-03-11T17:19:09.401Z,98248.78
2023-03-11T17:21:36.242Z,98250.38
2023-03-11T17:24:03.364Z,98256.53
2023-03-11T17:26:31.752Z,98259.84
2023-03-11T17:28:59.280Z,98259.13
2023-03-11T17:31:26.348Z,98262.44
2023-03-11T17:34:11.801Z,98265.94
2023-03-11T17:36:39.253Z,98271.06
2023-03-11T17:39:06.421Z,98280.63
2023-03-11T17:41:33.230Z,98290.19
2023-03-11T17:44:00.541Z,98295.28
2023-03-11T17:46:27.613Z,98297.88
2023-03-11T17:48:54.996Z,98289.00
2023-03-11T17:51:24.359Z,98304.53
2023-03-11T17:53:52.862Z,98295.88
2023-03-11T17:56:23.713Z,98300.19
2023-03-11T17:58:50.984Z,98296.75
2023-03-11T18:01:21.875Z,98293.84
2023-03-11T18:03:49.943Z,98305.91
2023-03-11T18:06:20.130Z,98305.91
2023-03-11T18:08:47.069Z,98307.75
2023-03-11T18:11:18.900Z,98311.13
2023-03-11T18:13:46.679Z,98315.41
2023-03-11T18:16:22.577Z,98322.28
2023-03-11T18:18:50.081Z,98323.06
2023-03-11T18:21:22.452Z,98310.19
2023-03-11T18:23:49.643Z,98323.09
2023-03-11T18:26:18.903Z,98336.88
2023-03-11T18:28:46.128Z,98336.84
2023-03-11T18:31:15.880Z,98339.50
2023-03-11T18:33:49.443Z,98355.84
2023-03-11T18:36:19.665Z,98343.78
2023-03-11T18:38:46.705Z,98358.53
2023-03-11T18:41:14.105Z,98370.44
2023-03-11T18:43:41.225Z,98376.63
2023-03-11T18:46:10.034Z,98385.28
2023-03-11T18:48:38.393Z,98384.16
2023-03-11T18:51:07.332Z,98393.41
2023-03-11T18:53:34.653Z,98401.38
2023-03-11T18:56:04.554Z,98400.59
2023-03-11T18:58:31.734Z,98403.19
2023-03-11T19:01:12.369Z,98405.75
2023-03-11T19:03:39.760Z,98416.84
2023-03-11T19:06:11.080Z,98409.88
2023-03-11T19:08:38.547Z,98415.72
2023-03-11T19:11:14.269Z,98412.38
2023-03-11T19:13:47.029Z,98419.16
2023-03-11T19:16:17.860Z,98428.50
2023-03-11T19:18:45.721Z,98404.25
2023-03-11T19:21:14.937Z,98428.50
2023-03-11T19:23:41.992Z,98424.41
2023-03-11T19:26:09.627Z,98433.88
2023-03-11T19:28:36.635Z,98438.16
2023-03-11T19:31:04.733Z,98455.22
2023-03-11T19:33:32.102Z,98461.31
2023-03-11T19:36:01.424Z,98467.22
2023-03-11T19:38:29.361Z,98476.03
2023-03-11T19:41:12.077Z,98463.66
2023-03-11T19:43:38.914Z,98469.00
2023-03-11T19:46:07.315Z,98482.88
2023-03-11T19:48:34.712Z,98485.28
2023-03-11T19:51:06.061Z,98492.16
2023-03-11T19:53:34.586Z,98496.78
2023-03-11T19:56:05.066Z,98498.56
2023-03-11T19:58:32.319Z,98500.16
2023-03-11T20:00:59.731Z,98501.78
2023-03-11T20:03:28.370Z,98515.66
2023-03-11T20:05:58.110Z,98504.53
2023-03-11T20:08:26.540Z,98513.84
2023-03-11T20:10:54.613Z,98509.13
2023-03-11T20:13:22.476Z,98511.00
2023-03-11T20:15:50.322Z,98521.25
2023-03-11T20:18:18.338Z,98515.84
2023-03-11T20:20:47.177Z,98526.97
2023-03-11T20:23:14.608Z,98527.97
2023-03-11T20:25:44.688Z,98535.63
2023-03-11T20:28:11.719Z,98540.66
2023-03-11T20:30:39.299Z,98550.06
2023-03-11T20:33:11.101Z,98543.81
2023-03-11T20:35:38.119Z,98548.13
2023-03-11T20:38:05.165Z,98559.38
2023-03-11T20:40:32.255Z,98559.28
2023-03-11T20:43:00.161Z,98556.63
2023-03-11T20:45:27.126Z,98565.19
2023-03-11T20:47:54.233Z,98564.31
2023-03-11T20:50:22.341Z,98565.28
2023-03-11T20:52:51.055Z,98570.66
2023-03-11T20:55:18.480Z,98575.88
2023-03-11T20:57:45.420Z,98580.19
2023-03-11T21:00:14.170Z,98584.31
2023-03-11T21:03:02.479Z,98591.22
2023-03-11T21:05:29.681Z,98599.94
2023-03-11T21:08:15.240Z,98595.72
2023-03-11T21:10:42.720Z,98602.53
2023-03-11T21:13:09.769Z,98602.78
2023-03-11T21:15:36.955Z,98610.56
2023-03-11T21:18:04.352Z,98615.69
2023-03-11T21:20:31.546Z,98625.19
2023-03-11T21:22:58.603Z,98624.25
2023-03-11T21:25:25.642Z,98624.25
2023-03-11T21:27:52.583Z,98631.03
2023-03-11T21:30:19.524Z,98632.91
2023-03-11T21:32:46.656Z,98631.16
2023-03-11T21:35:13.919Z,98633.41
2023-03-11T21:37:42.176Z,98638.47
2023-03-11T21:40:09.926Z,98643.66
2023-03-11T21:42:36.954Z,98629.81
2023-03-11T21:45:04.152Z,98626.25
2023-03-11T21:47:31.089Z,98642.34
2023-03-11T21:49:58.084Z,98644.06
2023-03-11T21:52:25.199Z,98644.97
2023-03-11T21:54:52.076Z,98646.63
2023-03-11T21:57:20.039Z,98644.09
2023-03-11T21:59:47.155Z,98644.00
2023-03-11T22:02:15.996Z,98653.41
2023-03-11T22:04:46.635Z,98650.06
2023-03-11T22:07:13.709Z,98641.25
2023-03-11T22:09:40.754Z,98656.88
2023-03-11T22:12:07.973Z,98658.47
2023-03-11T22:14:35.127Z,98658.50
2023-03-11T22:17:03.581Z,98664.34
2023-03-11T22:19:30.646Z,98670.19
2023-03-11T22:21:57.677Z,98669.16
2023-03-11T22:24:24.686Z,98675.97
2023-03-11T22:26:51.584Z,98672.38
2023-03-11T22:29:18.654Z,98676.56
2023-03-11T22:31:45.779Z,98683.38
2023-03-11T22:34:12.599Z,98684.69
2023-03-11T22:36:39.500Z,98693.88
2023-03-11T22:39:06.636Z,98686.94
2023-03-11T22:41:33.821Z,98683.03
2023-03-11T22:44:00.971Z,98698.53
2023-03-11T22:46:29.057Z,98694.19
2023-03-11T22:48:56.142Z,98691.72
2023-03-11T22:51:23.402Z,98700.59
2023-03-11T22:53:50.345Z,98701.66
2023-03-11T22:56:18.501Z,98703.84
2023-03-11T22:58:45.960Z,98697.59
2023-03-11T23:01:13.534Z,98701.28
2023-03-11T23:03:42.638Z,98700.59
2023-03-11T23:06:13.898Z,98698.94
2023-03-11T23:08:40.759Z,98689.28
2023-03-11T23:11:10.553Z,98705.00
2023-03-11T23:13:38.458Z,98705.97
2023-03-11T23:16:14.757Z,98702.19
2023-03-11T23:18:42.586Z,98698.66
2023-03-11T23:21:24.790Z,98705.25
2023-03-11T23:23:52.503Z,98706.63
2023-03-11T23:26:20.614Z,98709.28
2023-03-11T23:28:48.905Z,98712.78
2023-03-11T23:31:15.973Z,98708.50
2023-03-11T23:33:43.083Z,98711.13
2023-03-11T23:36:13.654Z,98708.50
2023-03-11T23:38:42.375Z,98712.50
2023-03-11T23:41:12.634Z,98711.97
2023-03-11T23:43:40.438Z,98722.31
2023-03-11T23:46:08.402Z,98721.44
2023-03-11T23:48:35.393Z,98721.28
2023-03-11T23:51:02.569Z,98711.53
2023-03-11T23:53:29.527Z,98727.09
2023-03-11T23:55:56.498Z,98723.69
2023-03-11T23:58:23.681Z,98725.03
